Terminal Aerodrome Forecast
Issued by NWS Springfield, MO

Home | Current Version | Previous Version | Text Only | Print | Product List | Glossary On
Versions: 1 2 3 4 5 6 7 8 9 10 11 12 13 14 15 16 17 18 19 20
000
FTUS43 KSGF 231700
TAFSGF
TAF
KSGF 231720Z 2318/2418 15012KT P6SM SCT060 OVC100
     FM240600 15015G25KT P6SM OVC040 WS015/15040KT
      TEMPO 2410/2414 3SM TSRA OVC030CB=

USA.gov is the U.S. government's official web portal to all federal, state and local government web resources and services.